Time;durP1;ratioP1;P1;durP2;ratioP2;P2;SDS_P1;SDS_P2;PMS_P1;PMS_P2;Temp;Humidity;BMP_temperature;BMP_pressure;BME280_temperature;BME280_humidity;BME280_pressure;Samples;Min_cycle;Max_cycle;Signal;HPM_P1;HPM_P2
2021/06/21 09:52:32;;;;;;;;;3.00;1.00;;;;;23.77;44.86;100441.28;5096106;27;51121;-45
2021/06/21 09:54:57;;;;;;;;;1.25;1.25;;;;;23.92;44.60;100437.91;5092003;27;51100;-52
2021/06/21 10:00:12;;;;;;;;;3.00;1.75;;;;;24.27;44.28;100429.22;5063639;27;50901;-63
2021/06/21 10:02:38;;;;;;;;;0.25;0.00;;;;;24.45;43.89;100434.47;5055084;27;51135;-63
2021/06/21 10:05:05;;;;;;;;;2.00;2.00;;;;;24.57;43.45;100436.25;5051188;27;51169;-62
2021/06/21 10:07:34;;;;;;;;;1.00;1.00;;;;;24.66;43.17;100443.84;5043887;27;51787;-62
2021/06/21 10:10:05;;;;;;;;;1.75;1.00;;;;;24.74;43.37;100451.72;5057091;27;51595;-61
2021/06/21 10:12:30;;;;;;;;;0.25;0.25;;;;;24.82;43.00;100441.28;5084570;27;51179;-62
2021/06/21 10:14:56;;;;;;;;;1.00;1.00;;;;;24.87;43.04;100446.84;5037249;27;51090;-62
2021/06/21 10:17:21;;;;;;;;;4.00;2.25;;;;;24.93;43.14;100452.19;5037196;27;51693;-63
2021/06/21 10:19:47;;;;;;;;;1.50;1.50;;;;;24.97;43.10;100449.72;5039480;27;50927;-61
2021/06/21 10:22:12;;;;;;;;;2.00;0.25;;;;;25.01;42.66;100443.44;5075661;27;53875;-62
2021/06/21 10:24:37;;;;;;;;;2.75;2.00;;;;;25.03;43.45;100457.03;5028917;27;50989;-60
2021/06/21 10:27:05;;;;;;;;;1.00;1.00;;;;;25.11;42.74;100451.00;5017129;27;60514;-59
2021/06/21 10:29:32;;;;;;;;;3.00;1.00;;;;;25.17;42.83;100447.19;5058074;27;51094;-58
2021/06/21 10:31:58;;;;;;;;;2.25;2.00;;;;;25.21;42.60;100451.09;5076154;27;51778;-59
2021/06/21 10:34:24;;;;;;;;;1.25;1.25;;;;;25.22;42.63;100447.25;5028098;27;51437;-59
2021/06/21 10:36:52;;;;;;;;;2.00;2.00;;;;;25.25;42.22;100445.88;5029822;28;64146;-59
2021/06/21 10:39:22;;;;;;;;;2.50;1.75;;;;;25.26;42.26;100447.53;5025708;27;51535;-58
2021/06/21 10:42:05;;;;;;;;;3.00;3.00;;;;;25.28;42.17;100440.63;5033037;28;50914;-58
2021/06/21 10:44:49;;;;;;;;;4.00;2.00;;;;;25.30;42.32;100441.19;5030355;28;51844;-57
2021/06/21 10:47:34;;;;;;;;;2.00;1.00;;;;;25.32;42.01;100440.91;5028903;27;51843;-63
2021/06/21 10:50:21;;;;;;;;;1.75;1.00;;;;;25.33;42.17;100439.84;5044377;27;51303;-56
2021/06/21 10:52:50;;;;;;;;;0.25;0.25;;;;;25.35;42.47;100434.03;5028720;27;51215;-58
2021/06/21 10:55:30;;;;;;;;;2.25;1.00;;;;;25.38;42.48;100436.28;5027569;27;50619;-59
2021/06/21 10:57:55;;;;;;;;;4.50;3.75;;;;;25.37;42.20;100435.44;5091511;27;52825;-58
2021/06/21 11:00:38;;;;;;;;;2.75;2.75;;;;;25.40;42.02;100443.22;5029280;27;51152;-57
2021/06/21 11:03:31;;;;;;;;;2.25;2.00;;;;;25.43;41.66;100439.06;5028862;27;51118;-58
2021/06/21 11:06:01;;;;;;;;;5.50;2.75;;;;;25.45;41.78;100446.03;5036443;27;51015;-58
2021/06/21 11:08:28;;;;;;;;;1.00;1.00;;;;;25.47;41.71;100449.38;5012597;27;54095;-58
2021/06/21 11:10:55;;;;;;;;;2.00;2.00;;;;;25.50;41.61;100445.22;5018347;27;51442;-60
2021/06/21 11:13:32;;;;;;;;;3.75;3.00;;;;;25.54;41.59;100438.06;5018022;27;52696;-59
2021/06/21 11:16:24;;;;;;;;;4.75;4.75;;;;;25.57;41.38;100443.06;5040762;27;50970;-59
2021/06/21 11:19:08;;;;;;;;;4.00;2.75;;;;;25.59;41.43;100443.66;5021990;27;51862;-59
2021/06/21 11:21:48;;;;;;;;;4.00;3.25;;;;;25.63;41.22;100436.44;5004904;27;51149;-57
2021/06/21 11:24:46;;;;;;;;;4.00;3.75;;;;;25.67;41.20;100431.22;5018277;27;51195;-57
2021/06/21 11:27:23;;;;;;;;;2.75;1.50;;;;;25.69;40.83;100432.63;5039841;27;51110;-56
2021/06/21 11:29:54;;;;;;;;;3.00;2.00;;;;;25.72;41.43;100432.09;5018818;27;54029;-55
2021/06/21 11:32:19;;;;;;;;;2.75;2.00;;;;;25.74;41.59;100427.16;5025085;27;51178;-58
2021/06/21 11:35:01;;;;;;;;;2.25;1.50;;;;;25.75;41.47;100431.59;5041360;27;52312;-57
2021/06/21 11:37:48;;;;;;;;;3.75;3.75;;;;;25.78;41.52;100425.50;5031763;27;51279;-58
2021/06/21 11:40:23;;;;;;;;;2.00;2.00;;;;;25.80;41.35;100414.13;5045989;27;51223;-56
2021/06/21 11:42:58;;;;;;;;;3.50;2.00;;;;;25.82;41.36;100421.06;5067812;27;51079;-57
2021/06/21 11:45:58;;;;;;;;;5.00;3.00;;;;;25.84;41.27;100426.34;5010117;28;51594;-56
2021/06/21 11:48:27;;;;;;;;;4.00;4.00;;;;;25.85;41.05;100428.88;5010801;28;51354;-56
2021/06/21 11:50:52;;;;;;;;;2.00;2.00;;;;;25.85;40.96;100428.88;5013811;28;52046;-56
2021/06/21 11:53:18;;;;;;;;;3.50;3.50;;;;;25.88;40.98;100430.28;5014938;28;51012;-57
2021/06/21 11:55:43;;;;;;;;;2.75;2.75;;;;;25.89;40.96;100424.47;5016971;28;51176;-56
2021/06/21 11:58:09;;;;;;;;;1.00;1.00;;;;;25.90;41.11;100423.34;5013220;28;51106;-56
2021/06/21 12:00:34;;;;;;;;;3.00;3.00;;;;;25.91;40.78;100424.19;5014339;28;52537;-57
2021/06/21 12:03:04;;;;;;;;;4.25;3.50;;;;;25.92;40.71;100416.69;5014027;28;51148;-56
2021/06/21 12:05:29;;;;;;;;;2.50;2.00;;;;;25.93;40.71;100424.75;5016339;28;51113;-56
2021/06/21 12:07:55;;;;;;;;;3.00;3.00;;;;;25.92;40.47;100422.25;5016670;28;51174;-56
2021/06/21 12:10:20;;;;;;;;;3.00;3.00;;;;;25.94;40.46;100411.69;5019612;28;53882;-56
2021/06/21 12:12:53;;;;;;;;;1.50;1.50;;;;;25.94;40.16;100418.09;5014870;28;51030;-57
2021/06/21 12:15:27;;;;;;;;;2.00;2.00;;;;;25.95;40.27;100416.16;5014020;28;51051;-55
2021/06/21 12:17:54;;;;;;;;;2.00;2.00;;;;;25.94;40.40;100414.47;5018565;28;51037;-54
2021/06/21 12:20:20;;;;;;;;;3.50;3.00;;;;;25.96;40.01;100415.91;5027800;28;51003;-57
2021/06/21 12:23:07;;;;;;;;;4.00;3.50;;;;;25.98;39.96;100408.13;5017569;28;52556;-57
2021/06/21 12:25:39;;;;;;;;;3.00;1.50;;;;;25.99;39.70;100401.47;5017058;28;51057;-56
2021/06/21 12:28:24;;;;;;;;;1.50;1.50;;;;;26.01;39.39;100398.44;5056804;27;51270;-59
2021/06/21 12:31:04;;;;;;;;;2.25;2.25;;;;;26.01;39.64;100403.97;5015870;28;54403;-57
2021/06/21 12:33:34;;;;;;;;;3.00;2.00;;;;;26.01;39.46;100384.56;5014974;28;51207;-56
2021/06/21 12:36:15;;;;;;;;;1.00;1.00;;;;;26.03;39.69;100401.75;5013782;28;51078;-56
2021/06/21 12:38:50;;;;;;;;;1.50;1.50;;;;;26.01;39.59;100392.88;5015463;27;50978;-57
2021/06/21 12:41:28;;;;;;;;;1.50;1.50;;;;;26.02;39.43;100389.81;5016784;28;51964;-56
2021/06/21 12:44:06;;;;;;;;;1.00;1.00;;;;;26.03;39.29;100391.50;5015665;27;51198;-57
2021/06/21 12:46:34;;;;;;;;;3.00;1.00;;;;;26.04;39.29;100395.09;5016971;28;51123;-56
2021/06/21 12:49:00;;;;;;;;;2.00;1.00;;;;;26.05;39.02;100391.22;5010990;28;51119;-57
2021/06/21 12:51:26;;;;;;;;;2.00;2.00;;;;;26.05;38.88;100388.44;5015364;28;51357;-57
2021/06/21 12:53:52;;;;;;;;;1.50;1.50;;;;;26.06;38.54;100384.59;5013439;28;72140;-57
2021/06/21 12:56:29;;;;;;;;;3.00;1.25;;;;;26.08;38.62;100390.69;5012950;27;51000;-60
2021/06/21 12:58:56;;;;;;;;;2.00;2.00;;;;;26.08;38.51;100383.22;5033136;27;51182;-57
2021/06/21 13:01:35;;;;;;;;;0.25;0.25;;;;;26.09;38.49;100378.50;5087746;27;52972;-54
2021/06/21 13:04:12;;;;;;;;;1.00;1.00;;;;;26.09;38.56;100384.03;5008352;28;51318;-57
2021/06/21 13:06:38;;;;;;;;;1.00;1.00;;;;;26.08;38.87;100380.44;5012867;28;50896;-53
2021/06/21 13:09:11;;;;;;;;;2.00;1.00;;;;;26.09;38.95;100379.31;5005721;27;51127;-54
2021/06/21 13:11:56;;;;;;;;;1.25;1.00;;;;;26.12;39.20;100373.22;5021394;27;51234;-53
2021/06/21 13:14:28;;;;;;;;;2.00;0.25;;;;;26.14;39.42;100359.91;5046390;27;51171;-52
2021/06/21 13:17:20;;;;;;;;;2.25;2.25;;;;;26.18;39.70;100369.38;5016542;27;51281;-54
2021/06/21 13:19:50;;;;;;;;;0.75;0.75;;;;;26.22;39.92;100361.31;5039362;27;51154;-53
2021/06/21 13:22:26;;;;;;;;;1.00;1.00;;;;;26.27;39.91;100358.59;5030307;27;51874;-51
2021/06/21 13:24:52;;;;;;;;;2.50;1.00;;;;;26.28;40.24;100360.25;5024762;27;51268;-52
2021/06/21 13:27:28;;;;;;;;;1.00;1.00;;;;;26.33;40.32;100362.19;5026252;27;52117;-54
2021/06/21 13:29:55;;;;;;;;;1.25;0.25;;;;;26.35;40.67;100355.25;5042143;27;51292;-58
2021/06/21 13:32:27;;;;;;;;;1.00;1.00;;;;;26.37;40.87;100355.88;5093227;27;51194;-50
2021/06/21 13:34:54;;;;;;;;;2.00;1.00;;;;;26.38;40.79;100354.75;5032652;27;51124;-53
2021/06/21 13:37:23;;;;;;;;;1.00;1.00;;;;;26.41;41.05;100353.38;5038510;27;51130;-53
2021/06/21 13:40:13;;;;;;;;;1.25;1.25;;;;;26.45;41.34;100355.31;5032043;27;53117;-53
2021/06/21 13:42:40;;;;;;;;;2.00;2.00;;;;;26.48;41.26;100348.41;5077921;27;53485;-50
2021/06/21 13:45:10;;;;;;;;;1.00;1.00;;;;;26.53;41.66;100353.94;5025171;27;51026;-50
2021/06/21 13:47:45;;;;;;;;;1.50;1.25;;;;;26.56;41.30;100352.56;5037283;27;51069;-52
2021/06/21 13:50:12;;;;;;;;;3.00;1.25;;;;;26.59;41.77;100347.31;5068261;27;51256;-54
2021/06/21 13:52:46;;;;;;;;;2.00;2.00;;;;;26.61;41.72;100347.84;5067062;27;52704;-55
2021/06/21 13:55:13;;;;;;;;;0.75;0.75;;;;;26.64;41.58;100347.28;5029413;27;51243;-52
2021/06/21 13:57:47;;;;;;;;;1.00;1.00;;;;;26.68;41.92;100353.97;5053721;27;51241;-53
2021/06/21 14:00:29;;;;;;;;;1.75;1.75;;;;;26.72;42.17;100348.69;5044972;27;50955;-54
2021/06/21 14:02:54;;;;;;;;;4.00;1.00;;;;;26.73;42.15;100353.97;5032895;27;51975;-50
2021/06/21 14:05:20;;;;;;;;;1.75;1.75;;;;;26.76;42.25;100363.69;5017077;27;51328;-53
2021/06/21 14:07:45;;;;;;;;;1.25;1.25;;;;;26.80;42.12;100356.50;5028753;27;51063;-52
2021/06/21 14:10:11;;;;;;;;;1.75;1.00;;;;;26.84;42.46;100356.75;5017761;27;51198;-52
2021/06/21 14:12:36;;;;;;;;;3.00;2.00;;;;;26.87;42.00;100362.59;5018730;27;51780;-54
2021/06/21 14:15:02;;;;;;;;;1.00;1.00;;;;;26.90;42.19;100362.06;5015325;27;67535;-57
2021/06/21 14:17:27;;;;;;;;;1.00;1.00;;;;;26.94;42.54;100365.13;5009765;27;51149;-53
2021/06/21 14:19:53;;;;;;;;;1.00;1.00;;;;;26.96;42.62;100360.09;5039289;27;51124;-51
2021/06/21 14:22:19;;;;;;;;;1.00;1.00;;;;;26.95;42.38;100362.06;5047790;27;51059;-54
2021/06/21 14:24:45;;;;;;;;;2.50;1.00;;;;;26.95;42.53;100350.09;5039955;27;50512;-52
2021/06/21 14:27:10;;;;;;;;;2.00;2.00;;;;;26.95;42.65;100344.53;5035071;27;51112;-52
2021/06/21 14:29:35;;;;;;;;;2.00;2.00;;;;;26.97;42.84;100342.31;5039526;27;54084;-53
2021/06/21 14:32:01;;;;;;;;;1.00;1.00;;;;;26.99;42.72;100340.09;5029150;27;52714;-52
2021/06/21 14:34:26;;;;;;;;;2.25;1.00;;;;;27.02;42.64;100357.09;5041803;27;50976;-50
2021/06/21 14:36:53;;;;;;;;;1.00;1.00;;;;;27.04;43.09;100352.09;5009491;27;50959;-53
2021/06/21 14:39:18;;;;;;;;;1.75;1.50;;;;;27.04;43.02;100346.53;5021499;27;51095;-51
2021/06/21 14:41:44;;;;;;;;;2.25;2.25;;;;;27.03;42.91;100338.47;5054373;27;73254;-53
2021/06/21 14:44:09;;;;;;;;;1.00;1.00;;;;;27.05;42.74;100336.22;5024538;27;66791;-53
2021/06/21 14:46:34;;;;;;;;;1.00;1.00;;;;;27.06;43.31;100328.72;5051702;27;50931;-53
2021/06/21 14:49:00;;;;;;;;;2.00;1.00;;;;;27.06;43.26;100331.50;5035096;27;51320;-54
2021/06/21 14:51:26;;;;;;;;;1.00;1.00;;;;;27.08;43.33;100340.41;5040389;27;51844;-51
2021/06/21 14:53:51;;;;;;;;;1.50;1.50;;;;;27.10;43.19;100333.47;5079355;27;51257;-53
2021/06/21 14:56:17;;;;;;;;;1.75;1.75;;;;;27.13;43.36;100334.84;5013832;27;51212;-49
2021/06/21 14:58:43;;;;;;;;;1.25;1.25;;;;;27.14;43.70;100333.72;5010131;28;51489;-52
2021/06/21 15:01:09;;;;;;;;;4.00;3.00;;;;;27.18;43.40;100334.84;4997081;28;52578;-52
2021/06/21 15:03:34;;;;;;;;;4.00;3.00;;;;;27.19;44.02;100333.72;5014309;28;63155;-53
2021/06/21 15:06:24;;;;;;;;;4.00;2.25;;;;;27.19;43.74;100336.50;5014923;27;60355;-50
2021/06/21 15:08:49;;;;;;;;;2.50;2.50;;;;;27.22;43.53;100344.31;5008851;28;51880;-53
2021/06/21 15:11:15;;;;;;;;;3.25;3.00;;;;;27.22;43.30;100342.34;5018902;28;51659;-54
2021/06/21 15:13:40;;;;;;;;;2.75;2.75;;;;;27.23;43.99;100343.19;5014983;28;51175;-56
2021/06/21 15:16:06;;;;;;;;;4.50;3.75;;;;;27.23;43.70;100344.00;5015365;28;61887;-51
2021/06/21 15:18:31;;;;;;;;;4.00;4.00;;;;;27.23;43.45;100344.00;4997240;28;51166;-53
2021/06/21 15:20:57;;;;;;;;;3.00;2.25;;;;;27.23;43.96;100357.91;5014441;28;53384;-51
2021/06/21 15:23:22;;;;;;;;;3.25;3.25;;;;;27.23;43.80;100354.31;5018774;28;50818;-52
2021/06/21 15:25:48;;;;;;;;;4.75;2.75;;;;;27.21;44.02;100353.75;5025079;28;50902;-52
2021/06/21 15:28:13;;;;;;;;;6.25;5.00;;;;;27.21;43.61;100357.38;5070215;27;50848;-51
2021/06/21 15:30:39;;;;;;;;;4.25;4.25;;;;;27.21;43.85;100360.16;5013250;27;51340;-53
2021/06/21 15:33:04;;;;;;;;;4.00;4.00;;;;;27.21;43.66;100362.94;5014351;27;65900;-54
2021/06/21 15:35:30;;;;;;;;;4.75;4.75;;;;;27.20;43.88;100358.47;5015422;28;51028;-52
2021/06/21 15:37:56;;;;;;;;;4.50;4.00;;;;;27.21;43.70;100360.16;5016046;28;51505;-53
2021/06/21 15:40:21;;;;;;;;;4.75;4.75;;;;;27.21;43.82;100357.38;5018450;27;51774;-54
2021/06/21 15:42:48;;;;;;;;;5.00;4.25;;;;;27.21;43.51;100353.75;5013563;27;51159;-53
2021/06/21 15:45:16;;;;;;;;;5.25;4.25;;;;;27.21;43.82;100354.59;5014250;28;51128;-55
2021/06/21 15:47:42;;;;;;;;;6.25;5.25;;;;;27.20;43.41;100352.06;5012978;28;51395;-52
2021/06/21 15:50:08;;;;;;;;;9.00;7.50;;;;;27.20;44.28;100350.16;5013220;28;51006;-53
2021/06/21 15:52:34;;;;;;;;;5.25;4.50;;;;;27.22;43.66;100344.31;5014993;28;51922;-53
2021/06/21 15:55:10;;;;;;;;;4.25;4.00;;;;;27.20;43.93;100349.28;5016152;28;51093;-53
2021/06/21 15:57:36;;;;;;;;;7.75;6.50;;;;;27.22;44.05;100352.66;5014836;28;51055;-53
2021/06/21 16:00:02;;;;;;;;;6.00;6.00;;;;;27.22;43.73;100360.97;5013904;28;51156;-53
2021/06/21 16:02:27;;;;;;;;;4.50;4.50;;;;;27.20;43.99;100361.25;5014028;28;50917;-55
2021/06/21 16:04:52;;;;;;;;;5.25;5.25;;;;;27.22;43.91;100363.75;5017169;27;65888;-51
2021/06/21 16:07:18;;;;;;;;;10.00;6.50;;;;;27.20;43.70;100366.81;5023697;28;50538;-51
2021/06/21 16:09:43;;;;;;;;;7.00;4.50;;;;;27.23;44.29;100351.53;5017168;27;67693;-52
2021/06/21 16:12:09;;;;;;;;;7.00;5.75;;;;;27.25;44.11;100360.41;4996236;28;58951;-52
2021/06/21 16:14:35;;;;;;;;;8.00;7.25;;;;;27.24;44.19;100359.59;5011487;28;51189;-53
2021/06/21 16:17:00;;;;;;;;;6.00;6.00;;;;;27.24;44.06;100350.41;5012534;28;56719;-51
2021/06/21 16:19:27;;;;;;;;;7.25;4.75;;;;;27.23;43.86;100344.00;5013944;28;51716;-50
2021/06/21 16:21:53;;;;;;;;;7.50;7.25;;;;;27.25;44.26;100343.72;5015886;28;50846;-53
2021/06/21 16:24:19;;;;;;;;;7.75;5.00;;;;;27.27;43.69;100347.06;4999528;28;51168;-54
2021/06/21 16:26:44;;;;;;;;;5.50;5.00;;;;;27.29;44.41;100342.88;5023764;28;51046;-55
2021/06/21 16:29:10;;;;;;;;;7.50;7.00;;;;;27.33;44.13;100348.72;5043126;27;52120;-54
2021/06/21 16:31:35;;;;;;;;;6.25;6.00;;;;;27.31;44.19;100357.38;5016522;28;51022;-50
2021/06/21 16:34:01;;;;;;;;;8.50;5.25;;;;;27.31;45.00;100351.81;5013963;28;51529;-56
2021/06/21 16:36:26;;;;;;;;;8.25;7.50;;;;;27.31;44.55;100354.59;5010685;28;51194;-56
2021/06/21 16:38:51;;;;;;;;;5.50;5.00;;;;;27.34;45.23;100369.88;5013627;28;58930;-55
2021/06/21 16:41:17;;;;;;;;;8.00;7.00;;;;;27.33;45.52;100371.81;5012789;28;51101;-65
2021/06/21 16:43:42;;;;;;;;;7.00;4.00;;;;;27.33;45.31;100373.75;5013005;28;50999;-58
2021/06/21 16:46:08;;;;;;;;;8.00;8.00;;;;;27.32;45.61;100381.28;5012754;28;52322;-58
2021/06/21 16:48:33;;;;;;;;;7.50;5.50;;;;;27.33;45.67;100376.53;5012948;28;51972;-59
2021/06/21 16:50:58;;;;;;;;;5.75;5.75;;;;;27.33;45.86;100379.31;5012567;28;59483;-59
2021/06/21 16:53:24;;;;;;;;;8.25;6.25;;;;;27.33;45.76;100369.03;5013879;28;51085;-59
2021/06/21 16:55:51;;;;;;;;;8.25;4.50;;;;;27.36;45.35;100370.41;5014642;27;51350;-59
2021/06/21 16:58:17;;;;;;;;;6.75;6.00;;;;;27.36;46.20;100364.84;5014646;27;51241;-60
2021/06/21 17:00:42;;;;;;;;;8.00;6.75;;;;;27.37;45.79;100355.38;5012781;28;50968;-60
2021/06/21 17:03:08;;;;;;;;;7.00;4.00;;;;;27.38;45.54;100354.28;4995587;28;50968;-60
2021/06/21 17:05:36;;;;;;;;;8.00;6.75;;;;;27.41;46.08;100344.53;5011986;28;50978;-61
2021/06/21 17:08:01;;;;;;;;;5.25;5.25;;;;;27.42;46.13;100355.41;5012324;28;52083;-61
2021/06/21 17:10:28;;;;;;;;;6.50;5.75;;;;;27.42;46.21;100358.19;5013694;28;72018;-60
2021/06/21 17:12:54;;;;;;;;;9.50;8.00;;;;;27.45;46.38;100363.16;5012155;28;51018;-61
2021/06/21 17:15:24;;;;;;;;;6.00;3.75;;;;;27.46;45.91;100364.84;5012571;28;51061;-60
2021/06/21 17:17:49;;;;;;;;;8.25;6.75;;;;;27.49;46.34;100363.44;5011600;27;51180;-60
2021/06/21 17:20:15;;;;;;;;;3.50;3.50;;;;;27.49;46.24;100363.44;5016101;28;50902;-60
2021/06/21 17:22:41;;;;;;;;;7.25;4.75;;;;;27.50;45.76;100359.53;4999067;28;51632;-61
2021/06/21 17:25:07;;;;;;;;;6.75;6.00;;;;;27.50;45.93;100362.31;5021777;28;51086;-61
2021/06/21 17:27:32;;;;;;;;;4.50;4.50;;;;;27.51;46.25;100372.31;5017743;27;53692;-61
2021/06/21 17:29:58;;;;;;;;;6.25;5.25;;;;;27.52;46.33;100372.06;5010814;28;51093;-61
2021/06/21 17:32:23;;;;;;;;;9.00;6.75;;;;;27.53;45.80;100373.72;5011606;27;51015;-61
2021/06/21 17:34:49;;;;;;;;;6.00;6.00;;;;;27.54;46.33;100372.63;4994985;27;51464;-61
2021/06/21 17:37:14;;;;;;;;;5.75;5.75;;;;;27.53;46.13;100373.72;5014449;27;51053;-61
2021/06/21 17:39:40;;;;;;;;;5.75;5.50;;;;;27.53;45.63;100364.56;5010746;28;51179;-61
2021/06/21 17:42:06;;;;;;;;;6.00;5.00;;;;;27.52;45.88;100355.38;4996980;27;51166;-60
2021/06/21 17:44:31;;;;;;;;;7.50;4.25;;;;;27.52;45.28;100357.34;4994038;27;51043;-60
2021/06/21 17:46:57;;;;;;;;;6.25;5.75;;;;;27.51;45.34;100361.19;5011944;28;51006;-61
2021/06/21 17:49:22;;;;;;;;;8.75;6.75;;;;;27.51;45.48;100361.19;5011902;28;51290;-60
2021/06/21 17:51:48;;;;;;;;;9.00;6.00;;;;;27.50;45.44;100349.25;5013020;27;50945;-60
2021/06/21 17:54:14;;;;;;;;;6.00;6.00;;;;;27.50;45.96;100351.19;5010009;27;51138;-60
2021/06/21 17:56:39;;;;;;;;;9.25;6.75;;;;;27.49;45.77;100350.34;4991752;28;51894;-61
2021/06/21 17:59:06;;;;;;;;;8.00;6.75;;;;;27.48;45.34;100348.69;4992866;28;51217;-61
2021/06/21 18:01:32;;;;;;;;;7.00;6.00;;;;;27.47;45.17;100355.38;4994698;28;51041;-61
2021/06/21 18:03:57;;;;;;;;;7.00;7.00;;;;;27.46;45.59;100359.28;5012665;28;50978;-61
2021/06/21 18:06:23;;;;;;;;;7.50;6.50;;;;;27.45;45.64;100356.78;5010144;28;52575;-61
2021/06/21 18:08:48;;;;;;;;;8.50;7.25;;;;;27.43;45.58;100353.44;5010122;28;51073;-61
2021/06/21 18:11:13;;;;;;;;;9.00;5.00;;;;;27.43;45.08;100356.22;4992243;27;51182;-65
2021/06/21 18:13:39;;;;;;;;;9.50;9.50;;;;;27.41;45.47;100361.22;5012242;28;59726;-58
2021/06/21 18:16:04;;;;;;;;;11.25;9.50;;;;;27.39;45.04;100371.78;5014244;28;50868;-59
2021/06/21 18:18:33;;;;;;;;;10.50;9.00;;;;;27.38;45.30;100378.47;4996565;28;51081;-60
2021/06/21 18:20:58;;;;;;;;;8.00;8.00;;;;;27.36;45.46;100386.28;5019723;28;51150;-60
2021/06/21 18:23:24;;;;;;;;;8.25;7.75;;;;;27.35;45.59;100385.44;5016552;27;50972;-61
2021/06/21 18:25:49;;;;;;;;;10.25;10.00;;;;;27.34;45.52;100381.00;5014682;27;51820;-62
2021/06/21 18:28:15;;;;;;;;;10.00;9.50;;;;;27.34;45.63;100378.22;5055853;27;51161;-60
2021/06/21 18:30:40;;;;;;;;;11.75;10.75;;;;;27.33;45.94;100374.59;5012656;28;51088;-61
2021/06/21 18:33:07;;;;;;;;;11.75;9.00;;;;;27.33;45.68;100379.31;5012584;27;51535;-61
2021/06/21 18:35:33;;;;;;;;;9.25;8.25;;;;;27.30;45.73;100383.50;4996669;28;51151;-60
2021/06/21 18:38:00;;;;;;;;;16.50;13.50;;;;;27.30;45.84;100390.97;5013934;28;51207;-61
2021/06/21 18:40:26;;;;;;;;;14.75;11.75;;;;;27.29;46.02;100394.88;5020077;28;50988;-60
2021/06/21 18:42:51;;;;;;;;;10.25;10.25;;;;;27.28;45.89;100396.81;5017065;27;51287;-59
2021/06/21 18:45:17;;;;;;;;;12.75;11.25;;;;;27.27;46.20;100394.34;5011235;28;52612;-60
2021/06/21 18:47:43;;;;;;;;;12.00;11.25;;;;;27.27;45.70;100388.78;5014395;28;51220;-61
2021/06/21 18:50:10;;;;;;;;;14.25;12.50;;;;;27.26;46.01;100390.72;5013434;28;50897;-60
2021/06/21 18:52:36;;;;;;;;;13.50;12.50;;;;;27.25;46.16;100402.97;5011667;27;51112;-61
2021/06/21 18:55:07;;;;;;;;;19.25;15.25;;;;;27.24;46.38;100394.91;5014452;28;52015;-62
2021/06/21 18:57:36;;;;;;;;;13.50;12.00;;;;;27.22;46.09;100403.53;4996327;28;51221;-55
2021/06/21 19:00:04;;;;;;;;;15.75;14.75;;;;;27.20;46.04;100397.41;5003010;28;51138;-62
2021/06/21 19:02:30;;;;;;;;;19.75;13.50;;;;;27.21;46.33;100409.38;5002085;27;51281;-60
2021/06/21 19:04:55;;;;;;;;;14.75;14.75;;;;;27.20;45.98;100414.09;4983914;28;53129;-61
2021/06/21 19:07:21;;;;;;;;;20.00;15.00;;;;;27.19;45.82;100429.09;5012497;28;51170;-60
2021/06/21 19:09:46;;;;;;;;;16.25;12.50;;;;;27.19;45.96;100426.31;5014542;28;50965;-60
2021/06/21 19:12:12;;;;;;;;;14.50;14.50;;;;;27.19;46.32;100425.47;5012681;27;50950;-60
2021/06/21 19:14:42;;;;;;;;;17.75;15.50;;;;;27.18;46.44;100423.81;5015092;28;51815;-60
2021/06/21 19:17:08;;;;;;;;;16.25;13.00;;;;;27.17;46.28;100425.75;5000984;28;51063;-60
2021/06/21 19:19:34;;;;;;;;;16.25;14.25;;;;;27.18;46.41;100427.41;5020563;27;50607;-61
2021/06/21 19:22:00;;;;;;;;;17.50;15.25;;;;;27.19;46.42;100433.81;5002980;27;51237;-60
2021/06/21 19:24:25;;;;;;;;;15.25;14.75;;;;;27.18;46.19;100424.63;4994627;28;51803;-63
2021/06/21 19:26:51;;;;;;;;;14.25;13.00;;;;;27.17;46.29;100431.31;5020511;27;51015;-60
2021/06/21 19:29:16;;;;;;;;;17.75;14.75;;;;;27.16;45.98;100440.78;5010825;28;51019;-61
2021/06/21 19:31:41;;;;;;;;;17.00;15.00;;;;;27.15;46.26;100452.16;5011751;27;50920;-61
2021/06/21 19:34:07;;;;;;;;;13.75;13.00;;;;;27.14;46.43;100453.28;5011481;28;51730;-60
2021/06/21 19:36:32;;;;;;;;;14.75;14.50;;;;;27.13;46.22;100460.78;5010114;28;51277;-59
2021/06/21 19:38:59;;;;;;;;;16.00;14.75;;;;;27.13;46.39;100476.63;5010587;28;51218;-59
2021/06/21 19:41:25;;;;;;;;;15.25;13.00;;;;;27.13;46.52;100482.19;5011831;28;51402;-60
2021/06/21 19:43:50;;;;;;;;;14.00;12.25;;;;;27.13;46.71;100487.75;5013502;27;51877;-60
2021/06/21 19:46:16;;;;;;;;;13.75;12.75;;;;;27.13;46.17;100494.16;5016542;27;51195;-59
2021/06/21 19:48:41;;;;;;;;;14.50;14.00;;;;;27.13;46.50;100518.34;5019722;27;51096;-60
2021/06/21 19:51:07;;;;;;;;;15.50;11.75;;;;;27.13;46.86;100535.03;5021534;27;50961;-60
2021/06/21 19:53:32;;;;;;;;;14.75;10.25;;;;;27.14;46.38;100536.69;4995298;27;51158;-59
2021/06/21 19:55:58;;;;;;;;;13.75;10.50;;;;;27.14;46.66;100533.91;5012245;27;51288;-60
2021/06/21 19:58:27;;;;;;;;;16.00;14.00;;;;;27.14;46.51;100550.59;4994924;28;51187;-59
2021/06/21 20:00:53;;;;;;;;;10.75;10.75;;;;;27.14;46.99;100534.75;4998944;27;50973;-62
2021/06/21 20:03:18;;;;;;;;;12.50;12.50;;;;;27.13;46.93;100527.53;5024597;28;52912;-58
2021/06/21 20:05:44;;;;;;;;;12.50;11.25;;;;;27.13;46.53;100526.69;5019433;27;50907;-58
2021/06/21 20:08:10;;;;;;;;;12.75;12.00;;;;;27.12;47.10;100528.63;5026953;27;51068;-53
2021/06/21 20:10:36;;;;;;;;;9.75;8.75;;;;;27.12;47.22;100530.56;4993911;27;51050;-58
2021/06/21 20:13:01;;;;;;;;;12.50;10.50;;;;;27.12;47.12;100519.47;5032570;27;71819;-60
2021/06/21 20:15:27;;;;;;;;;11.50;9.50;;;;;27.11;47.66;100503.88;5019054;27;51039;-59
2021/06/21 20:17:52;;;;;;;;;13.50;9.50;;;;;27.12;47.81;100506.38;4999246;27;51205;-61
2021/06/21 20:20:19;;;;;;;;;12.50;10.75;;;;;27.12;47.66;100494.44;4995248;28;51038;-62
2021/06/21 20:22:48;;;;;;;;;10.50;10.50;;;;;27.13;47.70;100499.72;4995908;27;51212;-59
2021/06/21 20:25:14;;;;;;;;;10.50;9.00;;;;;27.14;47.60;100515.28;5096097;27;50984;-60
2021/06/21 20:27:43;;;;;;;;;10.50;10.00;;;;;27.14;48.00;100503.31;5066483;27;51192;-59
2021/06/21 20:30:09;;;;;;;;;14.25;11.00;;;;;27.14;47.86;100506.09;5037284;27;51418;-59
2021/06/21 20:32:35;;;;;;;;;11.25;9.00;;;;;27.13;47.74;100501.66;5012642;28;50968;-59
2021/06/21 20:35:05;;;;;;;;;9.75;8.25;;;;;27.12;47.70;100506.38;5012855;28;51413;-60
2021/06/21 20:37:36;;;;;;;;;8.25;8.00;;;;;27.13;48.09;100488.59;5010727;28;51182;-59
2021/06/21 20:40:03;;;;;;;;;11.25;9.50;;;;;27.11;48.06;100488.03;5010756;28;51083;-59
2021/06/21 20:42:29;;;;;;;;;8.75;8.00;;;;;27.10;47.84;100494.72;5010266;28;50943;-60
2021/06/21 20:44:55;;;;;;;;;7.00;7.00;;;;;27.08;47.91;100480.22;5034382;27;51139;-60
2021/06/21 20:47:20;;;;;;;;;8.00;7.25;;;;;27.08;48.02;100485.78;5011709;27;51035;-60
2021/06/21 20:49:49;;;;;;;;;12.00;12.00;;;;;27.07;47.99;100486.91;4992708;28;51199;-61
2021/06/21 20:52:16;;;;;;;;;8.50;8.25;;;;;27.06;48.43;100485.22;5012301;27;51110;-61
2021/06/21 20:54:41;;;;;;;;;10.50;7.75;;;;;27.06;48.12;100493.56;5007798;27;52097;-60
2021/06/21 20:57:07;;;;;;;;;10.50;10.25;;;;;27.06;48.13;100489.97;4992896;28;51366;-62
2021/06/21 20:59:33;;;;;;;;;9.00;9.00;;;;;27.04;48.16;100499.41;4993016;27;51072;-61
2021/06/21 21:01:59;;;;;;;;;9.50;9.50;;;;;27.04;48.54;100502.19;5013935;27;53207;-61
2021/06/21 21:04:25;;;;;;;;;10.00;9.75;;;;;27.04;48.05;100512.47;5013650;27;51135;-61
2021/06/21 21:06:50;;;;;;;;;7.75;7.75;;;;;27.04;48.15;100506.91;4994102;27;51030;-61
2021/06/21 21:09:16;;;;;;;;;10.00;9.25;;;;;27.03;48.35;100510.81;5012493;27;51219;-61
2021/06/21 21:11:44;;;;;;;;;11.25;9.75;;;;;27.04;48.08;100518.88;5018077;28;74892;-61
2021/06/21 21:14:15;;;;;;;;;11.25;9.75;;;;;27.02;48.40;100518.31;5010972;28;52575;-61
2021/06/21 21:16:40;;;;;;;;;10.50;10.50;;;;;27.04;48.05;100535.56;4993345;27;51178;-60
2021/06/21 21:19:07;;;;;;;;;10.00;10.00;;;;;27.03;48.37;100542.22;4999948;27;51041;-60
2021/06/21 21:21:33;;;;;;;;;15.75;10.00;;;;;27.03;48.25;100556.13;5012573;27;51136;-59